sensor_id;sensor_type;location;lat;lon;timestamp;P1;durP1;ratioP1;P2;durP2;ratioP2
53409;SDS011;66590;50.734;4.246;2023-05-20T00:00:29;8.50;;;6.03;;
53409;SDS011;66590;50.734;4.246;2023-05-20T00:02:56;12.57;;;6.88;;
53409;SDS011;66590;50.734;4.246;2023-05-20T00:05:24;12.75;;;7.40;;
53409;SDS011;66590;50.734;4.246;2023-05-20T00:07:51;13.73;;;7.07;;
53409;SDS011;66590;50.734;4.246;2023-05-20T00:10:18;13.32;;;8.23;;
53409;SDS011;66590;50.734;4.246;2023-05-20T00:12:46;10.27;;;7.60;;
53409;SDS011;66590;50.734;4.246;2023-05-20T00:15:13;9.68;;;7.22;;
53409;SDS011;66590;50.734;4.246;2023-05-20T00:17:40;8.70;;;6.30;;
53409;SDS011;66590;50.734;4.246;2023-05-20T00:20:07;12.05;;;6.80;;
53409;SDS011;66590;50.734;4.246;2023-05-20T00:22:36;11.23;;;5.88;;
53409;SDS011;66590;50.734;4.246;2023-05-20T00:25:03;8.23;;;6.22;;
53409;SDS011;66590;50.734;4.246;2023-05-20T00:27:31;12.13;;;5.95;;
53409;SDS011;66590;50.734;4.246;2023-05-20T00:29:57;10.90;;;5.80;;
53409;SDS011;66590;50.734;4.246;2023-05-20T00:32:24;13.43;;;6.40;;
53409;SDS011;66590;50.734;4.246;2023-05-20T00:34:55;10.05;;;6.57;;
53409;SDS011;66590;50.734;4.246;2023-05-20T00:37:22;10.48;;;8.00;;
53409;SDS011;66590;50.734;4.246;2023-05-20T00:39:51;14.23;;;9.68;;
53409;SDS011;66590;50.734;4.246;2023-05-20T00:42:18;15.23;;;10.00;;
53409;SDS011;66590;50.734;4.246;2023-05-20T00:44:46;12.13;;;10.20;;
53409;SDS011;66590;50.734;4.246;2023-05-20T00:47:13;13.48;;;8.50;;
53409;SDS011;66590;50.734;4.246;2023-05-20T00:49:41;11.85;;;7.85;;
53409;SDS011;66590;50.734;4.246;2023-05-20T00:52:15;8.98;;;6.70;;
53409;SDS011;66590;50.734;4.246;2023-05-20T00:54:42;12.30;;;8.90;;
53409;SDS011;66590;50.734;4.246;2023-05-20T00:57:11;13.40;;;8.65;;
53409;SDS011;66590;50.734;4.246;2023-05-20T00:59:39;11.68;;;7.05;;
53409;SDS011;66590;50.734;4.246;2023-05-20T01:02:09;8.80;;;6.63;;
53409;SDS011;66590;50.734;4.246;2023-05-20T01:04:36;10.13;;;5.40;;
53409;SDS011;66590;50.734;4.246;2023-05-20T01:07:04;9.23;;;5.55;;
53409;SDS011;66590;50.734;4.246;2023-05-20T01:09:31;8.77;;;6.00;;
53409;SDS011;66590;50.734;4.246;2023-05-20T01:12:01;10.30;;;5.90;;
53409;SDS011;66590;50.734;4.246;2023-05-20T01:14:34;12.98;;;6.13;;
53409;SDS011;66590;50.734;4.246;2023-05-20T01:17:07;7.95;;;5.68;;
53409;SDS011;66590;50.734;4.246;2023-05-20T01:19:37;9.63;;;5.38;;
53409;SDS011;66590;50.734;4.246;2023-05-20T01:22:07;8.75;;;5.50;;
53409;SDS011;66590;50.734;4.246;2023-05-20T01:24:37;8.65;;;5.30;;
53409;SDS011;66590;50.734;4.246;2023-05-20T01:27:05;7.32;;;5.57;;
53409;SDS011;66590;50.734;4.246;2023-05-20T01:29:32;7.63;;;5.00;;
53409;SDS011;66590;50.734;4.246;2023-05-20T01:31:59;8.50;;;4.95;;
53409;SDS011;66590;50.734;4.246;2023-05-20T01:34:27;9.15;;;5.30;;
53409;SDS011;66590;50.734;4.246;2023-05-20T01:36:54;6.82;;;4.88;;
53409;SDS011;66590;50.734;4.246;2023-05-20T01:39:22;5.97;;;4.82;;
53409;SDS011;66590;50.734;4.246;2023-05-20T01:41:51;7.47;;;4.72;;
53409;SDS011;66590;50.734;4.246;2023-05-20T01:44:19;9.13;;;5.55;;
53409;SDS011;66590;50.734;4.246;2023-05-20T01:46:47;9.57;;;5.40;;
53409;SDS011;66590;50.734;4.246;2023-05-20T01:49:15;8.55;;;5.03;;
53409;SDS011;66590;50.734;4.246;2023-05-20T01:51:42;10.82;;;5.32;;
53409;SDS011;66590;50.734;4.246;2023-05-20T01:54:09;10.38;;;5.50;;
53409;SDS011;66590;50.734;4.246;2023-05-20T01:56:36;9.77;;;4.70;;
53409;SDS011;66590;50.734;4.246;2023-05-20T01:59:04;12.80;;;5.07;;
53409;SDS011;66590;50.734;4.246;2023-05-20T02:01:31;12.07;;;5.70;;
53409;SDS011;66590;50.734;4.246;2023-05-20T02:03:58;8.77;;;5.43;;
53409;SDS011;66590;50.734;4.246;2023-05-20T02:06:25;7.68;;;4.82;;
53409;SDS011;66590;50.734;4.246;2023-05-20T02:08:52;8.50;;;5.13;;
53409;SDS011;66590;50.734;4.246;2023-05-20T02:11:19;7.97;;;4.85;;
53409;SDS011;66590;50.734;4.246;2023-05-20T02:13:46;7.43;;;5.13;;
53409;SDS011;66590;50.734;4.246;2023-05-20T02:16:16;6.63;;;4.90;;
53409;SDS011;66590;50.734;4.246;2023-05-20T02:18:43;6.80;;;4.68;;
53409;SDS011;66590;50.734;4.246;2023-05-20T02:21:10;8.38;;;5.15;;
53409;SDS011;66590;50.734;4.246;2023-05-20T02:23:37;8.43;;;5.43;;
53409;SDS011;66590;50.734;4.246;2023-05-20T02:26:04;9.77;;;5.40;;
53409;SDS011;66590;50.734;4.246;2023-05-20T02:28:31;6.47;;;5.32;;
53409;SDS011;66590;50.734;4.246;2023-05-20T02:30:58;6.57;;;4.90;;
53409;SDS011;66590;50.734;4.246;2023-05-20T02:33:27;9.27;;;5.07;;
53409;SDS011;66590;50.734;4.246;2023-05-20T02:35:54;7.85;;;4.75;;
53409;SDS011;66590;50.734;4.246;2023-05-20T02:38:21;10.75;;;5.35;;
53409;SDS011;66590;50.734;4.246;2023-05-20T02:40:48;6.00;;;5.05;;
53409;SDS011;66590;50.734;4.246;2023-05-20T02:43:15;6.47;;;5.00;;
53409;SDS011;66590;50.734;4.246;2023-05-20T02:45:42;8.25;;;5.03;;
53409;SDS011;66590;50.734;4.246;2023-05-20T02:48:10;8.93;;;5.10;;
53409;SDS011;66590;50.734;4.246;2023-05-20T02:50:38;10.13;;;4.65;;
53409;SDS011;66590;50.734;4.246;2023-05-20T02:53:05;9.07;;;4.70;;
53409;SDS011;66590;50.734;4.246;2023-05-20T02:55:33;10.70;;;5.60;;
53409;SDS011;66590;50.734;4.246;2023-05-20T02:58:00;6.20;;;4.72;;
53409;SDS011;66590;50.734;4.246;2023-05-20T03:00:27;6.60;;;4.47;;
53409;SDS011;66590;50.734;4.246;2023-05-20T03:02:54;8.05;;;5.00;;
53409;SDS011;66590;50.734;4.246;2023-05-20T03:05:22;6.75;;;4.85;;
53409;SDS011;66590;50.734;4.246;2023-05-20T03:07:50;9.70;;;5.07;;
53409;SDS011;66590;50.734;4.246;2023-05-20T03:10:17;6.22;;;4.40;;
53409;SDS011;66590;50.734;4.246;2023-05-20T03:12:44;7.55;;;4.38;;
53409;SDS011;66590;50.734;4.246;2023-05-20T03:15:11;8.77;;;4.95;;
53409;SDS011;66590;50.734;4.246;2023-05-20T03:17:38;6.60;;;4.60;;
53409;SDS011;66590;50.734;4.246;2023-05-20T03:20:06;6.50;;;4.75;;
53409;SDS011;66590;50.734;4.246;2023-05-20T03:22:33;9.27;;;4.97;;
53409;SDS011;66590;50.734;4.246;2023-05-20T03:25:02;7.45;;;5.32;;
53409;SDS011;66590;50.734;4.246;2023-05-20T03:27:29;7.97;;;4.82;;
53409;SDS011;66590;50.734;4.246;2023-05-20T03:29:56;8.90;;;5.15;;
53409;SDS011;66590;50.734;4.246;2023-05-20T03:32:23;8.27;;;5.00;;
53409;SDS011;66590;50.734;4.246;2023-05-20T03:34:50;7.55;;;4.72;;
53409;SDS011;66590;50.734;4.246;2023-05-20T03:37:17;8.38;;;5.30;;
53409;SDS011;66590;50.734;4.246;2023-05-20T03:39:44;6.45;;;4.47;;
53409;SDS011;66590;50.734;4.246;2023-05-20T03:42:12;7.50;;;5.30;;
53409;SDS011;66590;50.734;4.246;2023-05-20T03:44:39;10.13;;;5.30;;
53409;SDS011;66590;50.734;4.246;2023-05-20T03:47:06;10.35;;;5.22;;
53409;SDS011;66590;50.734;4.246;2023-05-20T03:49:33;5.78;;;4.75;;
53409;SDS011;66590;50.734;4.246;2023-05-20T03:52:00;9.15;;;5.13;;
53409;SDS011;66590;50.734;4.246;2023-05-20T03:54:27;6.00;;;4.80;;
53409;SDS011;66590;50.734;4.246;2023-05-20T03:56:54;7.35;;;4.93;;
53409;SDS011;66590;50.734;4.246;2023-05-20T03:59:23;8.02;;;4.78;;
53409;SDS011;66590;50.734;4.246;2023-05-20T04:01:50;7.50;;;5.32;;
53409;SDS011;66590;50.734;4.246;2023-05-20T04:04:17;8.43;;;5.15;;
53409;SDS011;66590;50.734;4.246;2023-05-20T04:06:44;9.90;;;4.97;;
53409;SDS011;66590;50.734;4.246;2023-05-20T04:09:11;8.32;;;5.30;;
53409;SDS011;66590;50.734;4.246;2023-05-20T04:11:38;9.05;;;4.85;;
53409;SDS011;66590;50.734;4.246;2023-05-20T04:14:05;7.28;;;5.20;;
53409;SDS011;66590;50.734;4.246;2023-05-20T04:16:35;10.45;;;5.13;;
53409;SDS011;66590;50.734;4.246;2023-05-20T04:19:02;6.80;;;5.22;;
53409;SDS011;66590;50.734;4.246;2023-05-20T04:21:30;9.55;;;5.53;;
53409;SDS011;66590;50.734;4.246;2023-05-20T04:23:57;11.85;;;5.60;;
53409;SDS011;66590;50.734;4.246;2023-05-20T04:26:24;8.50;;;5.28;;
53409;SDS011;66590;50.734;4.246;2023-05-20T04:28:51;6.82;;;4.95;;
53409;SDS011;66590;50.734;4.246;2023-05-20T04:31:18;7.70;;;5.50;;
53409;SDS011;66590;50.734;4.246;2023-05-20T04:33:46;9.38;;;5.57;;
53409;SDS011;66590;50.734;4.246;2023-05-20T04:36:14;11.27;;;5.35;;
53409;SDS011;66590;50.734;4.246;2023-05-20T04:38:41;9.73;;;5.47;;
53409;SDS011;66590;50.734;4.246;2023-05-20T04:41:08;12.68;;;5.72;;
53409;SDS011;66590;50.734;4.246;2023-05-20T04:43:35;9.43;;;6.20;;
53409;SDS011;66590;50.734;4.246;2023-05-20T04:46:02;9.52;;;5.57;;
53409;SDS011;66590;50.734;4.246;2023-05-20T04:48:29;9.68;;;5.82;;
53409;SDS011;66590;50.734;4.246;2023-05-20T04:50:58;9.73;;;5.70;;
53409;SDS011;66590;50.734;4.246;2023-05-20T04:53:25;9.05;;;5.88;;
53409;SDS011;66590;50.734;4.246;2023-05-20T04:55:53;9.65;;;5.72;;
53409;SDS011;66590;50.734;4.246;2023-05-20T04:58:20;12.30;;;5.95;;
53409;SDS011;66590;50.734;4.246;2023-05-20T05:00:47;7.82;;;6.13;;
53409;SDS011;66590;50.734;4.246;2023-05-20T05:03:14;12.40;;;6.68;;
53409;SDS011;66590;50.734;4.246;2023-05-20T05:05:42;8.40;;;5.70;;
53409;SDS011;66590;50.734;4.246;2023-05-20T05:08:10;10.45;;;6.05;;
53409;SDS011;66590;50.734;4.246;2023-05-20T05:10:37;7.32;;;5.38;;
53409;SDS011;66590;50.734;4.246;2023-05-20T05:13:04;13.13;;;6.35;;
53409;SDS011;66590;50.734;4.246;2023-05-20T05:15:31;11.20;;;5.97;;
53409;SDS011;66590;50.734;4.246;2023-05-20T05:17:59;9.13;;;6.45;;
53409;SDS011;66590;50.734;4.246;2023-05-20T05:20:26;11.02;;;6.10;;
53409;SDS011;66590;50.734;4.246;2023-05-20T05:22:53;11.10;;;5.35;;
53409;SDS011;66590;50.734;4.246;2023-05-20T05:25:21;9.07;;;5.95;;
53409;SDS011;66590;50.734;4.246;2023-05-20T05:27:48;8.63;;;5.70;;
53409;SDS011;66590;50.734;4.246;2023-05-20T05:30:15;11.52;;;6.22;;
53409;SDS011;66590;50.734;4.246;2023-05-20T05:32:42;12.23;;;5.75;;
53409;SDS011;66590;50.734;4.246;2023-05-20T05:35:10;10.20;;;6.10;;
53409;SDS011;66590;50.734;4.246;2023-05-20T05:37:37;13.30;;;6.18;;
53409;SDS011;66590;50.734;4.246;2023-05-20T05:40:05;10.43;;;6.35;;
53409;SDS011;66590;50.734;4.246;2023-05-20T05:42:34;7.72;;;6.32;;
53409;SDS011;66590;50.734;4.246;2023-05-20T05:45:01;14.30;;;6.63;;
53409;SDS011;66590;50.734;4.246;2023-05-20T05:47:29;7.72;;;5.38;;
53409;SDS011;66590;50.734;4.246;2023-05-20T05:49:56;11.43;;;6.25;;
53409;SDS011;66590;50.734;4.246;2023-05-20T05:52:23;14.57;;;6.28;;
53409;SDS011;66590;50.734;4.246;2023-05-20T05:54:50;9.20;;;6.50;;
53409;SDS011;66590;50.734;4.246;2023-05-20T05:57:17;12.45;;;6.30;;
53409;SDS011;66590;50.734;4.246;2023-05-20T05:59:45;8.45;;;6.28;;
53409;SDS011;66590;50.734;4.246;2023-05-20T06:02:12;9.15;;;6.13;;
53409;SDS011;66590;50.734;4.246;2023-05-20T06:04:40;10.00;;;6.57;;
53409;SDS011;66590;50.734;4.246;2023-05-20T06:07:07;12.25;;;5.72;;
53409;SDS011;66590;50.734;4.246;2023-05-20T06:09:34;9.45;;;5.65;;
53409;SDS011;66590;50.734;4.246;2023-05-20T06:12:01;6.80;;;5.20;;
53409;SDS011;66590;50.734;4.246;2023-05-20T06:14:28;7.70;;;5.40;;
53409;SDS011;66590;50.734;4.246;2023-05-20T06:16:57;8.50;;;5.40;;
53409;SDS011;66590;50.734;4.246;2023-05-20T06:19:24;6.97;;;5.65;;
53409;SDS011;66590;50.734;4.246;2023-05-20T06:21:51;7.65;;;4.88;;
53409;SDS011;66590;50.734;4.246;2023-05-20T06:24:18;8.52;;;5.13;;
53409;SDS011;66590;50.734;4.246;2023-05-20T06:26:47;8.15;;;4.95;;
53409;SDS011;66590;50.734;4.246;2023-05-20T06:29:14;7.70;;;5.38;;
53409;SDS011;66590;50.734;4.246;2023-05-20T06:31:41;7.88;;;4.65;;
53409;SDS011;66590;50.734;4.246;2023-05-20T06:34:09;10.05;;;5.05;;
53409;SDS011;66590;50.734;4.246;2023-05-20T06:36:36;7.63;;;4.72;;
53409;SDS011;66590;50.734;4.246;2023-05-20T06:39:04;6.22;;;4.72;;
53409;SDS011;66590;50.734;4.246;2023-05-20T06:41:31;8.50;;;4.82;;
53409;SDS011;66590;50.734;4.246;2023-05-20T06:43:58;7.10;;;5.22;;
53409;SDS011;66590;50.734;4.246;2023-05-20T06:46:25;5.88;;;4.63;;
53409;SDS011;66590;50.734;4.246;2023-05-20T06:48:52;6.65;;;4.72;;
53409;SDS011;66590;50.734;4.246;2023-05-20T06:51:20;7.07;;;4.75;;
53409;SDS011;66590;50.734;4.246;2023-05-20T06:53:47;6.07;;;4.35;;
53409;SDS011;66590;50.734;4.246;2023-05-20T06:56:14;7.57;;;5.15;;
53409;SDS011;66590;50.734;4.246;2023-05-20T06:58:42;5.55;;;4.60;;
53409;SDS011;66590;50.734;4.246;2023-05-20T07:01:08;7.03;;;4.80;;
53409;SDS011;66590;50.734;4.246;2023-05-20T07:03:36;7.18;;;4.70;;
53409;SDS011;66590;50.734;4.246;2023-05-20T07:06:03;10.95;;;4.93;;
53409;SDS011;66590;50.734;4.246;2023-05-20T07:08:31;5.85;;;4.40;;
53409;SDS011;66590;50.734;4.246;2023-05-20T07:10:58;7.18;;;4.55;;
53409;SDS011;66590;50.734;4.246;2023-05-20T07:13:25;5.28;;;4.78;;
53409;SDS011;66590;50.734;4.246;2023-05-20T07:15:52;6.45;;;5.10;;
53409;SDS011;66590;50.734;4.246;2023-05-20T07:18:19;5.97;;;4.60;;
53409;SDS011;66590;50.734;4.246;2023-05-20T07:20:46;6.93;;;4.90;;
53409;SDS011;66590;50.734;4.246;2023-05-20T07:23:13;6.90;;;4.38;;
53409;SDS011;66590;50.734;4.246;2023-05-20T07:25:42;5.55;;;4.47;;
53409;SDS011;66590;50.734;4.246;2023-05-20T07:28:10;8.05;;;4.90;;
53409;SDS011;66590;50.734;4.246;2023-05-20T07:30:37;5.97;;;4.10;;
53409;SDS011;66590;50.734;4.246;2023-05-20T07:33:04;6.90;;;5.00;;
53409;SDS011;66590;50.734;4.246;2023-05-20T07:35:31;7.45;;;4.25;;
53409;SDS011;66590;50.734;4.246;2023-05-20T07:37:59;8.70;;;4.05;;
53409;SDS011;66590;50.734;4.246;2023-05-20T07:40:26;7.78;;;4.80;;
53409;SDS011;66590;50.734;4.246;2023-05-20T09:40:30;13.07;;;3.70;;
53409;SDS011;66590;50.734;4.246;2023-05-20T09:42:58;26.35;;;6.25;;
53409;SDS011;66590;50.734;4.246;2023-05-20T09:45:28;8.93;;;4.30;;
53409;SDS011;66590;50.734;4.246;2023-05-20T09:47:56;6.47;;;3.90;;
53409;SDS011;66590;50.734;4.246;2023-05-20T09:50:24;7.90;;;3.85;;
53409;SDS011;66590;50.734;4.246;2023-05-20T09:52:52;8.15;;;3.80;;
53409;SDS011;66590;50.734;4.246;2023-05-20T09:55:22;8.18;;;3.20;;
53409;SDS011;66590;50.734;4.246;2023-05-20T09:57:51;7.35;;;3.38;;
53409;SDS011;66590;50.734;4.246;2023-05-20T10:00:19;4.32;;;3.50;;
53409;SDS011;66590;50.734;4.246;2023-05-20T10:02:46;7.00;;;3.88;;
53409;SDS011;66590;50.734;4.246;2023-05-20T10:05:16;5.40;;;3.50;;
53409;SDS011;66590;50.734;4.246;2023-05-20T10:10:58;5.53;;;3.03;;
53409;SDS011;66590;50.734;4.246;2023-05-20T10:13:38;5.38;;;2.88;;
53409;SDS011;66590;50.734;4.246;2023-05-20T10:16:18;5.05;;;2.97;;
53409;SDS011;66590;50.734;4.246;2023-05-20T10:18:57;5.32;;;3.10;;
53409;SDS011;66590;50.734;4.246;2023-05-20T10:21:32;3.78;;;3.38;;
53409;SDS011;66590;50.734;4.246;2023-05-20T10:24:04;6.05;;;3.65;;
53409;SDS011;66590;50.734;4.246;2023-05-20T10:26:33;4.68;;;3.22;;
53409;SDS011;66590;50.734;4.246;2023-05-20T10:29:02;4.10;;;3.03;;
53409;SDS011;66590;50.734;4.246;2023-05-20T10:31:43;4.97;;;3.38;;
53409;SDS011;66590;50.734;4.246;2023-05-20T10:34:13;5.85;;;3.22;;
53409;SDS011;66590;50.734;4.246;2023-05-20T10:36:43;5.70;;;3.30;;
53409;SDS011;66590;50.734;4.246;2023-05-20T10:39:13;5.53;;;3.10;;
53409;SDS011;66590;50.734;4.246;2023-05-20T10:41:41;6.85;;;3.58;;
53409;SDS011;66590;50.734;4.246;2023-05-20T10:44:09;6.80;;;3.60;;
53409;SDS011;66590;50.734;4.246;2023-05-20T10:46:37;5.38;;;3.05;;
53409;SDS011;66590;50.734;4.246;2023-05-20T10:49:24;8.50;;;3.83;;
53409;SDS011;66590;50.734;4.246;2023-05-20T10:51:59;7.35;;;3.60;;
53409;SDS011;66590;50.734;4.246;2023-05-20T10:54:26;6.68;;;3.40;;
53409;SDS011;66590;50.734;4.246;2023-05-20T10:56:53;6.53;;;3.40;;
53409;SDS011;66590;50.734;4.246;2023-05-20T10:59:22;6.60;;;3.40;;
53409;SDS011;66590;50.734;4.246;2023-05-20T11:01:49;6.35;;;3.50;;
53409;SDS011;66590;50.734;4.246;2023-05-20T11:04:16;4.75;;;3.42;;
53409;SDS011;66590;50.734;4.246;2023-05-20T11:06:50;5.88;;;3.63;;
53409;SDS011;66590;50.734;4.246;2023-05-20T11:09:17;7.47;;;4.15;;
53409;SDS011;66590;50.734;4.246;2023-05-20T11:11:44;6.13;;;4.15;;
53409;SDS011;66590;50.734;4.246;2023-05-20T11:14:11;8.15;;;3.85;;
53409;SDS011;66590;50.734;4.246;2023-05-20T11:16:40;4.43;;;3.53;;
53409;SDS011;66590;50.734;4.246;2023-05-20T11:19:07;3.97;;;3.33;;
53409;SDS011;66590;50.734;4.246;2023-05-20T11:21:41;3.65;;;3.22;;
53409;SDS011;66590;50.734;4.246;2023-05-20T11:24:09;8.77;;;3.28;;
53409;SDS011;66590;50.734;4.246;2023-05-20T11:26:36;5.47;;;3.33;;
53409;SDS011;66590;50.734;4.246;2023-05-20T11:29:03;6.53;;;3.47;;
53409;SDS011;66590;50.734;4.246;2023-05-20T11:31:30;4.30;;;3.40;;
53409;SDS011;66590;50.734;4.246;2023-05-20T11:33:59;4.22;;;3.20;;
53409;SDS011;66590;50.734;4.246;2023-05-20T11:36:26;4.60;;;3.70;;
53409;SDS011;66590;50.734;4.246;2023-05-20T11:38:53;4.25;;;3.35;;
53409;SDS011;66590;50.734;4.246;2023-05-20T11:41:22;5.55;;;3.45;;
53409;SDS011;66590;50.734;4.246;2023-05-20T11:43:54;3.63;;;3.13;;
53409;SDS011;66590;50.734;4.246;2023-05-20T11:46:22;4.32;;;3.40;;
53409;SDS011;66590;50.734;4.246;2023-05-20T11:48:52;4.97;;;3.42;;
53409;SDS011;66590;50.734;4.246;2023-05-20T11:51:24;3.70;;;3.22;;
53409;SDS011;66590;50.734;4.246;2023-05-20T11:53:52;3.63;;;3.28;;
53409;SDS011;66590;50.734;4.246;2023-05-20T11:56:24;5.80;;;3.65;;
53409;SDS011;66590;50.734;4.246;2023-05-20T11:58:53;5.10;;;3.80;;
53409;SDS011;66590;50.734;4.246;2023-05-20T12:01:22;3.92;;;3.53;;
53409;SDS011;66590;50.734;4.246;2023-05-20T12:03:50;5.05;;;3.83;;
53409;SDS011;66590;50.734;4.246;2023-05-20T12:06:18;5.72;;;3.70;;
53409;SDS011;66590;50.734;4.246;2023-05-20T12:08:46;4.05;;;3.30;;
53409;SDS011;66590;50.734;4.246;2023-05-20T12:11:13;4.00;;;3.30;;
53409;SDS011;66590;50.734;4.246;2023-05-20T12:13:40;4.40;;;3.60;;
53409;SDS011;66590;50.734;4.246;2023-05-20T12:16:07;6.70;;;3.60;;
53409;SDS011;66590;50.734;4.246;2023-05-20T12:18:34;6.85;;;4.15;;
53409;SDS011;66590;50.734;4.246;2023-05-20T12:21:01;7.10;;;3.83;;
53409;SDS011;66590;50.734;4.246;2023-05-20T12:23:28;7.72;;;4.00;;
53409;SDS011;66590;50.734;4.246;2023-05-20T12:25:57;5.68;;;3.70;;
53409;SDS011;66590;50.734;4.246;2023-05-20T12:28:24;7.65;;;3.80;;
53409;SDS011;66590;50.734;4.246;2023-05-20T12:30:51;5.82;;;3.88;;
53409;SDS011;66590;50.734;4.246;2023-05-20T12:33:19;4.10;;;3.60;;
53409;SDS011;66590;50.734;4.246;2023-05-20T12:35:46;4.75;;;3.70;;
53409;SDS011;66590;50.734;4.246;2023-05-20T12:38:13;5.43;;;3.47;;
53409;SDS011;66590;50.734;4.246;2023-05-20T12:40:41;5.68;;;3.80;;
53409;SDS011;66590;50.734;4.246;2023-05-20T12:43:09;4.82;;;4.10;;
53409;SDS011;66590;50.734;4.246;2023-05-20T12:45:36;6.90;;;3.65;;
53409;SDS011;66590;50.734;4.246;2023-05-20T12:48:04;4.90;;;3.92;;
53409;SDS011;66590;50.734;4.246;2023-05-20T12:50:31;5.43;;;3.55;;
53409;SDS011;66590;50.734;4.246;2023-05-20T12:52:59;8.82;;;3.60;;
53409;SDS011;66590;50.734;4.246;2023-05-20T12:55:26;64.18;;;11.10;;
53409;SDS011;66590;50.734;4.246;2023-05-20T12:57:55;11.60;;;4.30;;
53409;SDS011;66590;50.734;4.246;2023-05-20T13:00:24;7.70;;;4.40;;
53409;SDS011;66590;50.734;4.246;2023-05-20T13:02:51;7.53;;;3.88;;
53409;SDS011;66590;50.734;4.246;2023-05-20T13:05:20;5.47;;;3.25;;
53409;SDS011;66590;50.734;4.246;2023-05-20T13:07:48;6.03;;;3.65;;
53409;SDS011;66590;50.734;4.246;2023-05-20T13:10:15;7.32;;;3.70;;
53409;SDS011;66590;50.734;4.246;2023-05-20T13:12:42;4.35;;;3.45;;
53409;SDS011;66590;50.734;4.246;2023-05-20T13:15:10;6.00;;;3.90;;
53409;SDS011;66590;50.734;4.246;2023-05-20T13:17:38;4.25;;;3.30;;
53409;SDS011;66590;50.734;4.246;2023-05-20T13:20:06;4.68;;;3.10;;
53409;SDS011;66590;50.734;4.246;2023-05-20T13:22:34;5.30;;;3.40;;
53409;SDS011;66590;50.734;4.246;2023-05-20T13:25:01;5.07;;;3.22;;
53409;SDS011;66590;50.734;4.246;2023-05-20T13:27:28;6.03;;;3.47;;
53409;SDS011;66590;50.734;4.246;2023-05-20T13:29:58;8.18;;;3.78;;
53409;SDS011;66590;50.734;4.246;2023-05-20T13:32:30;4.57;;;3.78;;
53409;SDS011;66590;50.734;4.246;2023-05-20T13:34:58;7.15;;;3.80;;
53409;SDS011;66590;50.734;4.246;2023-05-20T13:37:25;7.03;;;3.47;;
53409;SDS011;66590;50.734;4.246;2023-05-20T13:39:52;3.70;;;3.00;;
53409;SDS011;66590;50.734;4.246;2023-05-20T13:42:20;4.90;;;3.20;;
53409;SDS011;66590;50.734;4.246;2023-05-20T13:44:47;5.18;;;3.22;;
53409;SDS011;66590;50.734;4.246;2023-05-20T13:47:14;4.53;;;3.55;;
53409;SDS011;66590;50.734;4.246;2023-05-20T13:49:41;3.60;;;2.97;;
53409;SDS011;66590;50.734;4.246;2023-05-20T13:52:09;6.00;;;3.33;;
53409;SDS011;66590;50.734;4.246;2023-05-20T13:54:36;8.40;;;4.05;;
53409;SDS011;66590;50.734;4.246;2023-05-20T13:57:03;21.42;;;4.95;;
53409;SDS011;66590;50.734;4.246;2023-05-20T13:59:31;29.05;;;5.63;;
53409;SDS011;66590;50.734;4.246;2023-05-20T14:01:58;27.88;;;5.97;;
53409;SDS011;66590;50.734;4.246;2023-05-20T14:04:25;23.75;;;4.97;;
53409;SDS011;66590;50.734;4.246;2023-05-20T14:06:52;16.55;;;4.70;;
53409;SDS011;66590;50.734;4.246;2023-05-20T14:09:21;5.63;;;3.42;;
53409;SDS011;66590;50.734;4.246;2023-05-20T14:11:48;7.97;;;3.63;;
53409;SDS011;66590;50.734;4.246;2023-05-20T14:14:15;7.60;;;3.85;;
53409;SDS011;66590;50.734;4.246;2023-05-20T14:16:42;10.18;;;4.40;;
53409;SDS011;66590;50.734;4.246;2023-05-20T14:19:09;13.43;;;4.88;;
53409;SDS011;66590;50.734;4.246;2023-05-20T14:21:36;11.57;;;4.05;;
53409;SDS011;66590;50.734;4.246;2023-05-20T14:24:03;12.13;;;4.93;;
53409;SDS011;66590;50.734;4.246;2023-05-20T14:26:33;10.55;;;4.78;;
53409;SDS011;66590;50.734;4.246;2023-05-20T14:29:00;6.20;;;3.80;;
53409;SDS011;66590;50.734;4.246;2023-05-20T14:31:27;8.60;;;3.80;;
53409;SDS011;66590;50.734;4.246;2023-05-20T14:33:54;6.00;;;3.80;;
53409;SDS011;66590;50.734;4.246;2023-05-20T14:36:21;5.55;;;3.67;;
53409;SDS011;66590;50.734;4.246;2023-05-20T14:38:48;9.32;;;4.03;;
53409;SDS011;66590;50.734;4.246;2023-05-20T14:41:15;8.38;;;3.92;;
53409;SDS011;66590;50.734;4.246;2023-05-20T14:43:43;6.75;;;4.35;;
53409;SDS011;66590;50.734;4.246;2023-05-20T14:46:10;8.18;;;3.42;;
53409;SDS011;66590;50.734;4.246;2023-05-20T14:48:37;13.07;;;4.25;;
53409;SDS011;66590;50.734;4.246;2023-05-20T14:51:04;9.57;;;4.07;;
53409;SDS011;66590;50.734;4.246;2023-05-20T14:53:31;5.20;;;3.45;;
53409;SDS011;66590;50.734;4.246;2023-05-20T14:55:58;7.93;;;4.10;;
53409;SDS011;66590;50.734;4.246;2023-05-20T14:58:25;5.75;;;3.70;;
53409;SDS011;66590;50.734;4.246;2023-05-20T15:00:54;9.48;;;3.67;;
53409;SDS011;66590;50.734;4.246;2023-05-20T15:03:21;4.93;;;3.80;;
53409;SDS011;66590;50.734;4.246;2023-05-20T15:05:48;8.25;;;3.95;;
53409;SDS011;66590;50.734;4.246;2023-05-20T15:08:16;5.82;;;3.80;;
53409;SDS011;66590;50.734;4.246;2023-05-20T15:10:43;5.97;;;3.65;;
53409;SDS011;66590;50.734;4.246;2023-05-20T15:13:10;8.27;;;4.05;;
53409;SDS011;66590;50.734;4.246;2023-05-20T15:15:37;5.22;;;3.72;;
53409;SDS011;66590;50.734;4.246;2023-05-20T15:18:05;4.18;;;3.72;;
53409;SDS011;66590;50.734;4.246;2023-05-20T15:20:32;6.60;;;3.72;;
53409;SDS011;66590;50.734;4.246;2023-05-20T15:22:59;4.15;;;3.45;;
53409;SDS011;66590;50.734;4.246;2023-05-20T15:25:26;4.28;;;3.60;;
53409;SDS011;66590;50.734;4.246;2023-05-20T15:27:53;4.88;;;3.60;;
53409;SDS011;66590;50.734;4.246;2023-05-20T15:30:20;6.13;;;3.90;;
53409;SDS011;66590;50.734;4.246;2023-05-20T15:32:47;11.00;;;3.65;;
53409;SDS011;66590;50.734;4.246;2023-05-20T15:35:16;7.32;;;4.03;;
53409;SDS011;66590;50.734;4.246;2023-05-20T15:37:43;4.90;;;4.38;;
53409;SDS011;66590;50.734;4.246;2023-05-20T15:40:11;8.32;;;4.60;;
53409;SDS011;66590;50.734;4.246;2023-05-20T15:42:38;7.90;;;3.55;;
53409;SDS011;66590;50.734;4.246;2023-05-20T15:45:05;8.48;;;3.80;;
53409;SDS011;66590;50.734;4.246;2023-05-20T15:47:35;4.25;;;3.35;;
53409;SDS011;66590;50.734;4.246;2023-05-20T15:50:06;6.35;;;3.88;;
53409;SDS011;66590;50.734;4.246;2023-05-20T15:52:34;4.47;;;3.53;;
53409;SDS011;66590;50.734;4.246;2023-05-20T15:55:02;7.05;;;3.60;;
53409;SDS011;66590;50.734;4.246;2023-05-20T15:57:30;3.58;;;3.10;;
53409;SDS011;66590;50.734;4.246;2023-05-20T16:00:00;5.72;;;3.58;;
53409;SDS011;66590;50.734;4.246;2023-05-20T16:02:27;3.90;;;3.45;;
53409;SDS011;66590;50.734;4.246;2023-05-20T16:04:54;4.55;;;3.47;;
53409;SDS011;66590;50.734;4.246;2023-05-20T16:07:22;4.03;;;3.60;;
53409;SDS011;66590;50.734;4.246;2023-05-20T16:09:50;5.25;;;3.88;;
53409;SDS011;66590;50.734;4.246;2023-05-20T16:12:17;3.55;;;3.25;;
53409;SDS011;66590;50.734;4.246;2023-05-20T16:14:45;6.97;;;3.97;;
53409;SDS011;66590;50.734;4.246;2023-05-20T16:17:12;5.03;;;3.65;;
53409;SDS011;66590;50.734;4.246;2023-05-20T16:19:39;5.55;;;4.45;;
53409;SDS011;66590;50.734;4.246;2023-05-20T16:22:06;4.13;;;3.72;;
53409;SDS011;66590;50.734;4.246;2023-05-20T16:24:33;5.78;;;4.10;;
53409;SDS011;66590;50.734;4.246;2023-05-20T16:27:03;4.88;;;3.63;;
53409;SDS011;66590;50.734;4.246;2023-05-20T16:29:31;5.65;;;4.25;;
53409;SDS011;66590;50.734;4.246;2023-05-20T16:31:58;4.35;;;3.92;;
53409;SDS011;66590;50.734;4.246;2023-05-20T16:34:26;4.60;;;3.83;;
53409;SDS011;66590;50.734;4.246;2023-05-20T16:36:53;6.00;;;3.97;;
53409;SDS011;66590;50.734;4.246;2023-05-20T16:39:20;6.25;;;4.20;;
53409;SDS011;66590;50.734;4.246;2023-05-20T16:41:47;6.40;;;4.15;;
53409;SDS011;66590;50.734;4.246;2023-05-20T16:44:16;4.50;;;4.10;;
53409;SDS011;66590;50.734;4.246;2023-05-20T16:46:43;5.88;;;5.13;;
53409;SDS011;66590;50.734;4.246;2023-05-20T16:49:10;4.80;;;4.15;;